sensor_id;sensor_type;location;lat;lon;timestamp;temperature;humidity
69335;SHT31;56477;52.742;15.242;2023-05-07T00:00:12;7.40;94.96
69335;SHT31;56477;52.742;15.242;2023-05-07T00:03:00;7.40;94.67
69335;SHT31;56477;52.742;15.242;2023-05-07T00:05:27;7.40;94.36
69335;SHT31;56477;52.742;15.242;2023-05-07T00:07:53;7.42;94.24
69335;SHT31;56477;52.742;15.242;2023-05-07T00:10:19;7.42;94.19
69335;SHT31;56477;52.742;15.242;2023-05-07T00:12:45;7.38;94.02
69335;SHT31;56477;52.742;15.242;2023-05-07T00:15:11;7.37;94.02
69335;SHT31;56477;52.742;15.242;2023-05-07T00:17:37;7.40;94.03
69335;SHT31;56477;52.742;15.242;2023-05-07T00:20:04;7.38;93.96
69335;SHT31;56477;52.742;15.242;2023-05-07T00:22:31;7.37;94.04
69335;SHT31;56477;52.742;15.242;2023-05-07T00:24:58;7.37;94.07
69335;SHT31;56477;52.742;15.242;2023-05-07T00:27:24;7.36;94.38
69335;SHT31;56477;52.742;15.242;2023-05-07T00:29:51;7.38;94.17
69335;SHT31;56477;52.742;15.242;2023-05-07T00:32:16;7.36;94.02
69335;SHT31;56477;52.742;15.242;2023-05-07T00:34:43;7.34;94.10
69335;SHT31;56477;52.742;15.242;2023-05-07T00:37:09;7.30;94.12
69335;SHT31;56477;52.742;15.242;2023-05-07T00:39:35;7.28;93.86
69335;SHT31;56477;52.742;15.242;2023-05-07T00:42:02;7.31;94.00
69335;SHT31;56477;52.742;15.242;2023-05-07T00:44:29;7.30;94.00
69335;SHT31;56477;52.742;15.242;2023-05-07T00:46:57;7.26;94.02
69335;SHT31;56477;52.742;15.242;2023-05-07T00:49:33;7.28;93.98
69335;SHT31;56477;52.742;15.242;2023-05-07T00:52:01;7.28;94.09
69335;SHT31;56477;52.742;15.242;2023-05-07T00:54:27;7.27;93.94
69335;SHT31;56477;52.742;15.242;2023-05-07T00:56:54;7.30;93.98
69335;SHT31;56477;52.742;15.242;2023-05-07T00:59:20;7.31;94.14
69335;SHT31;56477;52.742;15.242;2023-05-07T01:01:47;7.26;94.04
69335;SHT31;56477;52.742;15.242;2023-05-07T01:04:13;7.22;94.16
69335;SHT31;56477;52.742;15.242;2023-05-07T01:06:39;7.23;94.14
69335;SHT31;56477;52.742;15.242;2023-05-07T01:09:06;7.20;94.42
69335;SHT31;56477;52.742;15.242;2023-05-07T01:11:32;7.22;94.71
69335;SHT31;56477;52.742;15.242;2023-05-07T01:13:59;7.23;94.62
69335;SHT31;56477;52.742;15.242;2023-05-07T01:16:25;7.22;94.47
69335;SHT31;56477;52.742;15.242;2023-05-07T01:18:52;7.16;94.40
69335;SHT31;56477;52.742;15.242;2023-05-07T01:21:24;7.16;94.46
69335;SHT31;56477;52.742;15.242;2023-05-07T01:23:50;7.07;94.32
69335;SHT31;56477;52.742;15.242;2023-05-07T01:26:16;7.03;94.28
69335;SHT31;56477;52.742;15.242;2023-05-07T01:28:45;6.96;94.28
69335;SHT31;56477;52.742;15.242;2023-05-07T01:31:12;6.91;94.14
69335;SHT31;56477;52.742;15.242;2023-05-07T01:33:41;6.85;94.22
69335;SHT31;56477;52.742;15.242;2023-05-07T01:36:08;6.81;94.36
69335;SHT31;56477;52.742;15.242;2023-05-07T01:38:37;6.76;94.42
69335;SHT31;56477;52.742;15.242;2023-05-07T01:41:03;6.75;94.84
69335;SHT31;56477;52.742;15.242;2023-05-07T01:43:30;6.74;94.75
69335;SHT31;56477;52.742;15.242;2023-05-07T01:45:57;6.69;95.01
69335;SHT31;56477;52.742;15.242;2023-05-07T01:48:24;6.67;94.89
69335;SHT31;56477;52.742;15.242;2023-05-07T01:50:51;6.64;94.89
69335;SHT31;56477;52.742;15.242;2023-05-07T01:53:17;6.58;95.16
69335;SHT31;56477;52.742;15.242;2023-05-07T01:55:43;6.58;95.17
69335;SHT31;56477;52.742;15.242;2023-05-07T01:58:09;6.57;95.30
69335;SHT31;56477;52.742;15.242;2023-05-07T02:00:36;6.51;95.24
69335;SHT31;56477;52.742;15.242;2023-05-07T02:03:02;6.52;95.18
69335;SHT31;56477;52.742;15.242;2023-05-07T02:05:28;6.44;95.12
69335;SHT31;56477;52.742;15.242;2023-05-07T02:07:54;6.42;95.09
69335;SHT31;56477;52.742;15.242;2023-05-07T02:10:20;6.37;95.19
69335;SHT31;56477;52.742;15.242;2023-05-07T02:12:46;6.33;95.35
69335;SHT31;56477;52.742;15.242;2023-05-07T02:15:12;6.33;95.67
69335;SHT31;56477;52.742;15.242;2023-05-07T02:18:08;6.33;95.49
69335;SHT31;56477;52.742;15.242;2023-05-07T02:20:35;6.30;95.42
69335;SHT31;56477;52.742;15.242;2023-05-07T02:23:01;6.27;95.61
69335;SHT31;56477;52.742;15.242;2023-05-07T02:25:27;6.26;95.72
69335;SHT31;56477;52.742;15.242;2023-05-07T02:27:53;6.21;95.95
69335;SHT31;56477;52.742;15.242;2023-05-07T02:30:19;6.18;95.88
69335;SHT31;56477;52.742;15.242;2023-05-07T02:32:47;6.16;95.80
69335;SHT31;56477;52.742;15.242;2023-05-07T02:35:12;6.16;95.90
69335;SHT31;56477;52.742;15.242;2023-05-07T02:37:38;6.17;95.97
69335;SHT31;56477;52.742;15.242;2023-05-07T02:40:05;6.14;96.12
69335;SHT31;56477;52.742;15.242;2023-05-07T02:42:31;6.14;96.00
69335;SHT31;56477;52.742;15.242;2023-05-07T02:44:57;6.16;95.99
69335;SHT31;56477;52.742;15.242;2023-05-07T02:47:23;6.17;96.02
69335;SHT31;56477;52.742;15.242;2023-05-07T02:49:49;6.16;95.97
69335;SHT31;56477;52.742;15.242;2023-05-07T02:52:15;6.17;96.00
69335;SHT31;56477;52.742;15.242;2023-05-07T02:54:41;6.17;95.94
69335;SHT31;56477;52.742;15.242;2023-05-07T02:57:07;6.16;95.82
69335;SHT31;56477;52.742;15.242;2023-05-07T02:59:33;6.11;95.87
69335;SHT31;56477;52.742;15.242;2023-05-07T03:01:59;6.09;96.04
69335;SHT31;56477;52.742;15.242;2023-05-07T03:04:24;6.10;96.03
69335;SHT31;56477;52.742;15.242;2023-05-07T03:06:50;6.11;96.08
69335;SHT31;56477;52.742;15.242;2023-05-07T03:09:16;6.13;96.14
69335;SHT31;56477;52.742;15.242;2023-05-07T03:11:43;6.21;96.06
69335;SHT31;56477;52.742;15.242;2023-05-07T03:14:09;6.17;95.93
69335;SHT31;56477;52.742;15.242;2023-05-07T03:16:35;6.20;96.01
69335;SHT31;56477;52.742;15.242;2023-05-07T03:19:01;6.18;96.11
69335;SHT31;56477;52.742;15.242;2023-05-07T03:21:27;6.27;96.24
69335;SHT31;56477;52.742;15.242;2023-05-07T03:23:53;6.27;96.19
69335;SHT31;56477;52.742;15.242;2023-05-07T03:26:19;6.30;95.97
69335;SHT31;56477;52.742;15.242;2023-05-07T03:28:45;6.31;95.83
69335;SHT31;56477;52.742;15.242;2023-05-07T03:31:12;6.34;95.78
69335;SHT31;56477;52.742;15.242;2023-05-07T03:33:52;6.38;95.66
69335;SHT31;56477;52.742;15.242;2023-05-07T03:36:19;6.37;95.45
69335;SHT31;56477;52.742;15.242;2023-05-07T03:38:44;6.38;95.46
69335;SHT31;56477;52.742;15.242;2023-05-07T03:41:11;6.41;95.37
69335;SHT31;56477;52.742;15.242;2023-05-07T03:43:37;6.41;95.46
69335;SHT31;56477;52.742;15.242;2023-05-07T03:46:04;6.35;95.21
69335;SHT31;56477;52.742;15.242;2023-05-07T03:48:30;6.28;95.16
69335;SHT31;56477;52.742;15.242;2023-05-07T03:50:57;6.27;95.09
69335;SHT31;56477;52.742;15.242;2023-05-07T03:53:23;6.27;95.22
69335;SHT31;56477;52.742;15.242;2023-05-07T03:55:49;6.18;95.25
69335;SHT31;56477;52.742;15.242;2023-05-07T03:58:15;6.16;95.12
69335;SHT31;56477;52.742;15.242;2023-05-07T04:00:42;6.14;95.19
69335;SHT31;56477;52.742;15.242;2023-05-07T04:03:08;6.13;95.07
69335;SHT31;56477;52.742;15.242;2023-05-07T04:05:34;6.10;95.14
69335;SHT31;56477;52.742;15.242;2023-05-07T04:08:01;6.07;94.97
69335;SHT31;56477;52.742;15.242;2023-05-07T04:10:29;6.10;94.98
69335;SHT31;56477;52.742;15.242;2023-05-07T04:12:55;6.13;94.90
69335;SHT31;56477;52.742;15.242;2023-05-07T04:15:23;6.13;94.56
69335;SHT31;56477;52.742;15.242;2023-05-07T04:17:49;6.17;94.52
69335;SHT31;56477;52.742;15.242;2023-05-07T04:20:16;6.24;94.51
69335;SHT31;56477;52.742;15.242;2023-05-07T04:22:42;6.27;94.23
69335;SHT31;56477;52.742;15.242;2023-05-07T04:25:09;6.28;93.92
69335;SHT31;56477;52.742;15.242;2023-05-07T04:27:35;6.28;93.65
69335;SHT31;56477;52.742;15.242;2023-05-07T04:30:02;6.33;93.46
69335;SHT31;56477;52.742;15.242;2023-05-07T04:32:29;6.37;93.25
69335;SHT31;56477;52.742;15.242;2023-05-07T04:34:55;6.42;93.17
69335;SHT31;56477;52.742;15.242;2023-05-07T04:37:22;6.45;92.96
69335;SHT31;56477;52.742;15.242;2023-05-07T04:39:48;6.48;93.03
69335;SHT31;56477;52.742;15.242;2023-05-07T04:42:17;6.49;93.02
69335;SHT31;56477;52.742;15.242;2023-05-07T04:44:44;6.55;92.88
69335;SHT31;56477;52.742;15.242;2023-05-07T04:47:11;6.57;92.79
69335;SHT31;56477;52.742;15.242;2023-05-07T04:49:38;6.61;92.68
69335;SHT31;56477;52.742;15.242;2023-05-07T04:52:04;6.67;92.61
69335;SHT31;56477;52.742;15.242;2023-05-07T04:54:30;6.68;91.77
69335;SHT31;56477;52.742;15.242;2023-05-07T04:56:56;6.75;91.86
69335;SHT31;56477;52.742;15.242;2023-05-07T04:59:22;6.81;91.88
69335;SHT31;56477;52.742;15.242;2023-05-07T05:01:48;6.92;91.83
69335;SHT31;56477;52.742;15.242;2023-05-07T05:04:14;6.96;91.50
69335;SHT31;56477;52.742;15.242;2023-05-07T05:06:40;6.96;91.32
69335;SHT31;56477;52.742;15.242;2023-05-07T05:09:06;6.99;91.50
69335;SHT31;56477;52.742;15.242;2023-05-07T05:11:32;7.07;91.39
69335;SHT31;56477;52.742;15.242;2023-05-07T05:13:59;7.10;90.98
69335;SHT31;56477;52.742;15.242;2023-05-07T05:16:26;7.14;90.70
69335;SHT31;56477;52.742;15.242;2023-05-07T05:18:52;7.17;90.20
69335;SHT31;56477;52.742;15.242;2023-05-07T05:21:20;7.27;90.14
69335;SHT31;56477;52.742;15.242;2023-05-07T05:23:46;7.33;90.15
69335;SHT31;56477;52.742;15.242;2023-05-07T05:26:12;7.38;89.65
69335;SHT31;56477;52.742;15.242;2023-05-07T05:28:38;7.46;89.79
69335;SHT31;56477;52.742;15.242;2023-05-07T05:31:04;7.51;89.45
69335;SHT31;56477;52.742;15.242;2023-05-07T05:33:31;7.55;88.60
69335;SHT31;56477;52.742;15.242;2023-05-07T05:35:56;7.63;88.59
69335;SHT31;56477;52.742;15.242;2023-05-07T05:38:22;7.71;88.33
69335;SHT31;56477;52.742;15.242;2023-05-07T05:40:48;7.78;88.05
69335;SHT31;56477;52.742;15.242;2023-05-07T05:43:14;7.79;87.69
69335;SHT31;56477;52.742;15.242;2023-05-07T05:45:40;7.81;87.06
69335;SHT31;56477;52.742;15.242;2023-05-07T05:48:06;7.86;87.45
69335;SHT31;56477;52.742;15.242;2023-05-07T05:50:34;7.91;87.26
69335;SHT31;56477;52.742;15.242;2023-05-07T05:53:02;7.99;87.19
69335;SHT31;56477;52.742;15.242;2023-05-07T05:55:28;8.06;87.23
69335;SHT31;56477;52.742;15.242;2023-05-07T05:57:54;8.17;87.32
69335;SHT31;56477;52.742;15.242;2023-05-07T06:00:20;8.19;86.17
69335;SHT31;56477;52.742;15.242;2023-05-07T06:02:48;8.29;86.87
69335;SHT31;56477;52.742;15.242;2023-05-07T06:05:14;8.32;86.25
69335;SHT31;56477;52.742;15.242;2023-05-07T06:07:40;8.36;85.79
69335;SHT31;56477;52.742;15.242;2023-05-07T06:10:06;8.40;85.22
69335;SHT31;56477;52.742;15.242;2023-05-07T06:12:33;8.50;84.69
69335;SHT31;56477;52.742;15.242;2023-05-07T06:14:58;8.60;85.27
69335;SHT31;56477;52.742;15.242;2023-05-07T06:17:25;8.71;84.39
69335;SHT31;56477;52.742;15.242;2023-05-07T06:19:51;8.84;84.54
69335;SHT31;56477;52.742;15.242;2023-05-07T06:22:17;8.88;83.40
69335;SHT31;56477;52.742;15.242;2023-05-07T06:24:43;8.84;83.82
69335;SHT31;56477;52.742;15.242;2023-05-07T06:27:09;8.92;84.08
69335;SHT31;56477;52.742;15.242;2023-05-07T06:29:35;9.09;84.79
69335;SHT31;56477;52.742;15.242;2023-05-07T06:32:09;9.19;84.27
69335;SHT31;56477;52.742;15.242;2023-05-07T06:34:35;9.29;83.22
69335;SHT31;56477;52.742;15.242;2023-05-07T06:37:02;9.43;83.15
69335;SHT31;56477;52.742;15.242;2023-05-07T06:39:28;9.57;83.12
69335;SHT31;56477;52.742;15.242;2023-05-07T06:41:54;9.61;82.06
69335;SHT31;56477;52.742;15.242;2023-05-07T06:44:20;9.70;81.91
69335;SHT31;56477;52.742;15.242;2023-05-07T06:46:46;9.76;81.01
69335;SHT31;56477;52.742;15.242;2023-05-07T06:49:13;10.00;80.88
69335;SHT31;56477;52.742;15.242;2023-05-07T06:51:39;10.14;80.17
69335;SHT31;56477;52.742;15.242;2023-05-07T06:54:05;10.49;79.82
69335;SHT31;56477;52.742;15.242;2023-05-07T06:56:32;10.77;77.81
69335;SHT31;56477;52.742;15.242;2023-05-07T06:58:59;10.90;76.87
69335;SHT31;56477;52.742;15.242;2023-05-07T07:01:26;11.07;76.68
69335;SHT31;56477;52.742;15.242;2023-05-07T07:03:52;11.64;74.89
69335;SHT31;56477;52.742;15.242;2023-05-07T07:06:18;12.44;74.15
69335;SHT31;56477;52.742;15.242;2023-05-07T07:08:44;13.67;68.64
69335;SHT31;56477;52.742;15.242;2023-05-07T07:11:10;13.97;64.16
69335;SHT31;56477;52.742;15.242;2023-05-07T07:13:36;14.97;62.81
69335;SHT31;56477;52.742;15.242;2023-05-07T07:16:02;15.21;61.25
69335;SHT31;56477;52.742;15.242;2023-05-07T07:18:28;15.36;59.33
69335;SHT31;56477;52.742;15.242;2023-05-07T07:20:54;15.24;59.23
69335;SHT31;56477;52.742;15.242;2023-05-07T07:23:20;14.80;61.06
69335;SHT31;56477;52.742;15.242;2023-05-07T07:25:46;15.21;60.93
69335;SHT31;56477;52.742;15.242;2023-05-07T07:28:12;15.20;60.95
69335;SHT31;56477;52.742;15.242;2023-05-07T07:30:39;15.89;58.69
69335;SHT31;56477;52.742;15.242;2023-05-07T07:33:05;15.90;58.31
69335;SHT31;56477;52.742;15.242;2023-05-07T07:35:32;15.34;56.23
69335;SHT31;56477;52.742;15.242;2023-05-07T07:37:58;15.67;56.14
69335;SHT31;56477;52.742;15.242;2023-05-07T07:40:24;15.55;54.61
69335;SHT31;56477;52.742;15.242;2023-05-07T07:42:51;16.25;54.78
69335;SHT31;56477;52.742;15.242;2023-05-07T07:45:17;16.65;53.73
69335;SHT31;56477;52.742;15.242;2023-05-07T07:47:43;16.41;54.65
69335;SHT31;56477;52.742;15.242;2023-05-07T07:50:09;17.47;52.69
69335;SHT31;56477;52.742;15.242;2023-05-07T07:52:35;17.48;52.39
69335;SHT31;56477;52.742;15.242;2023-05-07T07:55:02;16.28;53.20
69335;SHT31;56477;52.742;15.242;2023-05-07T07:57:28;16.09;55.86
69335;SHT31;56477;52.742;15.242;2023-05-07T07:59:54;17.23;53.87
69335;SHT31;56477;52.742;15.242;2023-05-07T08:02:20;17.70;51.27
69335;SHT31;56477;52.742;15.242;2023-05-07T08:04:47;16.41;51.51
69335;SHT31;56477;52.742;15.242;2023-05-07T08:07:13;16.95;53.20
69335;SHT31;56477;52.742;15.242;2023-05-07T08:09:39;17.16;51.91
69335;SHT31;56477;52.742;15.242;2023-05-07T08:12:06;17.73;50.90
69335;SHT31;56477;52.742;15.242;2023-05-07T08:14:33;16.06;51.99
69335;SHT31;56477;52.742;15.242;2023-05-07T08:16:59;16.62;51.69
69335;SHT31;56477;52.742;15.242;2023-05-07T08:19:25;17.47;49.34
69335;SHT31;56477;52.742;15.242;2023-05-07T08:21:50;18.64;48.29
69335;SHT31;56477;52.742;15.242;2023-05-07T08:24:17;17.89;50.03
69335;SHT31;56477;52.742;15.242;2023-05-07T08:26:44;19.07;46.24
69335;SHT31;56477;52.742;15.242;2023-05-07T08:29:11;18.32;48.47
69335;SHT31;56477;52.742;15.242;2023-05-07T08:31:36;18.30;47.87
69335;SHT31;56477;52.742;15.242;2023-05-07T08:34:04;18.22;47.52
69335;SHT31;56477;52.742;15.242;2023-05-07T08:36:30;19.12;46.73
69335;SHT31;56477;52.742;15.242;2023-05-07T08:38:57;19.86;45.75
69335;SHT31;56477;52.742;15.242;2023-05-07T08:41:22;20.22;45.93
69335;SHT31;56477;52.742;15.242;2023-05-07T08:43:50;18.63;46.04
69335;SHT31;56477;52.742;15.242;2023-05-07T08:46:18;18.93;46.15
69335;SHT31;56477;52.742;15.242;2023-05-07T08:48:48;18.73;45.96
69335;SHT31;56477;52.742;15.242;2023-05-07T08:51:17;17.67;48.00
69335;SHT31;56477;52.742;15.242;2023-05-07T08:53:45;18.67;47.25
69335;SHT31;56477;52.742;15.242;2023-05-07T08:56:11;17.71;48.37
69335;SHT31;56477;52.742;15.242;2023-05-07T08:58:38;17.95;45.54
69335;SHT31;56477;52.742;15.242;2023-05-07T09:01:08;16.92;48.03
69335;SHT31;56477;52.742;15.242;2023-05-07T09:03:37;17.50;48.68
69335;SHT31;56477;52.742;15.242;2023-05-07T09:06:03;17.50;46.17
69335;SHT31;56477;52.742;15.242;2023-05-07T09:08:29;17.51;48.59
69335;SHT31;56477;52.742;15.242;2023-05-07T09:10:55;18.06;46.08
69335;SHT31;56477;52.742;15.242;2023-05-07T09:13:21;17.70;46.89
69335;SHT31;56477;52.742;15.242;2023-05-07T09:15:47;17.88;46.95
69335;SHT31;56477;52.742;15.242;2023-05-07T09:18:13;17.09;47.31
69335;SHT31;56477;52.742;15.242;2023-05-07T09:20:39;17.73;47.21
69335;SHT31;56477;52.742;15.242;2023-05-07T09:23:06;17.10;45.85
69335;SHT31;56477;52.742;15.242;2023-05-07T09:25:34;17.60;46.30
69335;SHT31;56477;52.742;15.242;2023-05-07T09:28:01;18.42;45.46
69335;SHT31;56477;52.742;15.242;2023-05-07T09:30:28;17.89;45.32
69335;SHT31;56477;52.742;15.242;2023-05-07T09:32:59;17.92;46.53
69335;SHT31;56477;52.742;15.242;2023-05-07T09:35:26;17.79;45.99
69335;SHT31;56477;52.742;15.242;2023-05-07T09:37:55;18.60;45.14
69335;SHT31;56477;52.742;15.242;2023-05-07T09:40:25;19.19;45.93
69335;SHT31;56477;52.742;15.242;2023-05-07T09:42:52;19.52;44.40
69335;SHT31;56477;52.742;15.242;2023-05-07T09:45:29;18.90;44.12
69335;SHT31;56477;52.742;15.242;2023-05-07T09:47:57;18.16;44.95
69335;SHT31;56477;52.742;15.242;2023-05-07T09:50:28;18.88;43.17
69335;SHT31;56477;52.742;15.242;2023-05-07T09:52:55;18.83;45.39
69335;SHT31;56477;52.742;15.242;2023-05-07T09:55:22;19.28;44.12
69335;SHT31;56477;52.742;15.242;2023-05-07T09:57:53;19.04;43.48
69335;SHT31;56477;52.742;15.242;2023-05-07T10:00:19;17.95;44.75
69335;SHT31;56477;52.742;15.242;2023-05-07T10:02:52;18.15;44.85
69335;SHT31;56477;52.742;15.242;2023-05-07T10:05:18;18.88;44.73
69335;SHT31;56477;52.742;15.242;2023-05-07T10:07:46;18.71;44.93
69335;SHT31;56477;52.742;15.242;2023-05-07T10:10:14;18.52;43.02
69335;SHT31;56477;52.742;15.242;2023-05-07T10:12:43;18.49;45.22
69335;SHT31;56477;52.742;15.242;2023-05-07T10:15:11;17.89;44.62
69335;SHT31;56477;52.742;15.242;2023-05-07T10:17:39;17.98;48.39
69335;SHT31;56477;52.742;15.242;2023-05-07T10:20:06;18.46;43.89
69335;SHT31;56477;52.742;15.242;2023-05-07T10:22:38;17.23;45.28
69335;SHT31;56477;52.742;15.242;2023-05-07T10:25:08;16.57;47.91
69335;SHT31;56477;52.742;15.242;2023-05-07T10:27:37;17.00;47.95
69335;SHT31;56477;52.742;15.242;2023-05-07T10:33:19;16.07;48.42
69335;SHT31;56477;52.742;15.242;2023-05-07T10:35:47;16.20;50.30
69335;SHT31;56477;52.742;15.242;2023-05-07T10:38:14;16.35;50.03
69335;SHT31;56477;52.742;15.242;2023-05-07T10:40:40;16.41;50.94
69335;SHT31;56477;52.742;15.242;2023-05-07T10:43:06;16.50;50.24
69335;SHT31;56477;52.742;15.242;2023-05-07T10:45:32;16.62;51.22
69335;SHT31;56477;52.742;15.242;2023-05-07T10:50:37;16.00;52.59
69335;SHT31;56477;52.742;15.242;2023-05-07T10:58:29;16.14;52.70
69335;SHT31;56477;52.742;15.242;2023-05-07T11:01:02;16.54;50.08
69335;SHT31;56477;52.742;15.242;2023-05-07T11:03:29;17.67;48.03
69335;SHT31;56477;52.742;15.242;2023-05-07T11:11:18;17.33;48.91
69335;SHT31;56477;52.742;15.242;2023-05-07T11:13:48;18.43;46.52
69335;SHT31;56477;52.742;15.242;2023-05-07T11:16:22;19.04;44.32
69335;SHT31;56477;52.742;15.242;2023-05-07T11:18:55;19.28;43.85
69335;SHT31;56477;52.742;15.242;2023-05-07T11:21:37;19.05;46.79
69335;SHT31;56477;52.742;15.242;2023-05-07T11:24:05;17.34;49.29
69335;SHT31;56477;52.742;15.242;2023-05-07T11:26:42;18.93;48.18
69335;SHT31;56477;52.742;15.242;2023-05-07T11:29:16;19.67;45.60
69335;SHT31;56477;52.742;15.242;2023-05-07T11:31:43;20.82;42.64
69335;SHT31;56477;52.742;15.242;2023-05-07T11:34:09;20.31;44.16
69335;SHT31;56477;52.742;15.242;2023-05-07T11:36:41;20.96;42.20
69335;SHT31;56477;52.742;15.242;2023-05-07T11:39:28;19.97;43.77
69335;SHT31;56477;52.742;15.242;2023-05-07T11:41:54;20.44;41.36
69335;SHT31;56477;52.742;15.242;2023-05-07T11:44:20;20.38;41.85
69335;SHT31;56477;52.742;15.242;2023-05-07T11:46:46;20.38;41.93
69335;SHT31;56477;52.742;15.242;2023-05-07T11:49:12;19.48;43.96
69335;SHT31;56477;52.742;15.242;2023-05-07T11:51:38;17.66;47.77
69335;SHT31;56477;52.742;15.242;2023-05-07T11:54:05;18.10;45.61
69335;SHT31;56477;52.742;15.242;2023-05-07T11:56:34;18.77;45.67
69335;SHT31;56477;52.742;15.242;2023-05-07T11:59:01;19.04;45.58
69335;SHT31;56477;52.742;15.242;2023-05-07T12:01:27;19.36;43.97
69335;SHT31;56477;52.742;15.242;2023-05-07T12:03:53;19.67;43.47
69335;SHT31;56477;52.742;15.242;2023-05-07T12:06:19;20.16;43.32
69335;SHT31;56477;52.742;15.242;2023-05-07T12:08:45;20.98;42.03
69335;SHT31;56477;52.742;15.242;2023-05-07T12:11:29;21.19;42.99
69335;SHT31;56477;52.742;15.242;2023-05-07T12:13:55;21.27;40.89
69335;SHT31;56477;52.742;15.242;2023-05-07T12:16:21;19.48;43.87
69335;SHT31;56477;52.742;15.242;2023-05-07T12:18:48;18.56;44.68
69335;SHT31;56477;52.742;15.242;2023-05-07T12:21:14;18.97;45.82
69335;SHT31;56477;52.742;15.242;2023-05-07T12:23:40;19.51;44.40
69335;SHT31;56477;52.742;15.242;2023-05-07T12:26:06;18.88;45.75
69335;SHT31;56477;52.742;15.242;2023-05-07T12:28:38;17.63;48.05
69335;SHT31;56477;52.742;15.242;2023-05-07T12:31:04;17.08;49.60
69335;SHT31;56477;52.742;15.242;2023-05-07T12:33:31;16.18;51.31
69335;SHT31;56477;52.742;15.242;2023-05-07T12:35:58;17.61;48.76
69335;SHT31;56477;52.742;15.242;2023-05-07T12:38:24;18.68;45.65
69335;SHT31;56477;52.742;15.242;2023-05-07T12:40:54;18.33;46.78
69335;SHT31;56477;52.742;15.242;2023-05-07T12:43:20;18.19;46.57
69335;SHT31;56477;52.742;15.242;2023-05-07T12:45:48;19.21;46.64
69335;SHT31;56477;52.742;15.242;2023-05-07T12:48:15;19.43;44.12
69335;SHT31;56477;52.742;15.242;2023-05-07T12:50:41;20.24;43.28
69335;SHT31;56477;52.742;15.242;2023-05-07T12:53:07;19.67;44.96
69335;SHT31;56477;52.742;15.242;2023-05-07T12:55:49;18.74;43.92
69335;SHT31;56477;52.742;15.242;2023-05-07T12:58:35;19.98;43.08
69335;SHT31;56477;52.742;15.242;2023-05-07T13:01:06;19.35;43.29
69335;SHT31;56477;52.742;15.242;2023-05-07T13:03:34;19.45;43.75
69335;SHT31;56477;52.742;15.242;2023-05-07T13:06:03;20.20;42.83
69335;SHT31;56477;52.742;15.242;2023-05-07T13:08:35;20.24;43.93
69335;SHT31;56477;52.742;15.242;2023-05-07T13:11:03;20.11;42.28
69335;SHT31;56477;52.742;15.242;2023-05-07T13:13:34;20.24;43.28
69335;SHT31;56477;52.742;15.242;2023-05-07T13:16:01;19.19;43.69
69335;SHT31;56477;52.742;15.242;2023-05-07T13:18:29;18.39;45.70
69335;SHT31;56477;52.742;15.242;2023-05-07T13:20:55;19.26;44.51
69335;SHT31;56477;52.742;15.242;2023-05-07T13:23:21;20.42;42.33
69335;SHT31;56477;52.742;15.242;2023-05-07T13:25:48;20.80;41.11
69335;SHT31;56477;52.742;15.242;2023-05-07T13:28:14;20.48;41.71
69335;SHT31;56477;52.742;15.242;2023-05-07T13:30:40;20.41;42.02
69335;SHT31;56477;52.742;15.242;2023-05-07T13:33:06;20.27;41.56
69335;SHT31;56477;52.742;15.242;2023-05-07T13:35:32;20.49;41.44
69335;SHT31;56477;52.742;15.242;2023-05-07T13:37:59;20.90;40.80
69335;SHT31;56477;52.742;15.242;2023-05-07T13:40:24;21.17;40.65
69335;SHT31;56477;52.742;15.242;2023-05-07T13:42:51;18.83;44.09
69335;SHT31;56477;52.742;15.242;2023-05-07T13:45:18;18.90;44.76
69335;SHT31;56477;52.742;15.242;2023-05-07T13:47:45;19.14;45.15
69335;SHT31;56477;52.742;15.242;2023-05-07T13:50:11;19.83;43.23
69335;SHT31;56477;52.742;15.242;2023-05-07T13:52:45;19.42;45.25
69335;SHT31;56477;52.742;15.242;2023-05-07T13:55:19;18.63;44.77
69335;SHT31;56477;52.742;15.242;2023-05-07T13:57:46;18.81;45.52
69335;SHT31;56477;52.742;15.242;2023-05-07T14:00:13;18.88;46.18
69335;SHT31;56477;52.742;15.242;2023-05-07T14:02:40;18.46;47.11
69335;SHT31;56477;52.742;15.242;2023-05-07T14:05:07;17.95;47.44
69335;SHT31;56477;52.742;15.242;2023-05-07T14:07:33;18.56;46.42
69335;SHT31;56477;52.742;15.242;2023-05-07T14:09:59;18.40;46.24
69335;SHT31;56477;52.742;15.242;2023-05-07T14:12:25;18.49;47.14
69335;SHT31;56477;52.742;15.242;2023-05-07T14:14:51;18.94;46.83
69335;SHT31;56477;52.742;15.242;2023-05-07T14:17:17;18.74;47.73
69335;SHT31;56477;52.742;15.242;2023-05-07T14:19:43;18.19;46.43
69335;SHT31;56477;52.742;15.242;2023-05-07T14:22:10;17.18;48.57
69335;SHT31;56477;52.742;15.242;2023-05-07T14:24:36;18.25;46.69
69335;SHT31;56477;52.742;15.242;2023-05-07T14:27:02;18.52;45.99
69335;SHT31;56477;52.742;15.242;2023-05-07T14:29:28;19.29;45.11
69335;SHT31;56477;52.742;15.242;2023-05-07T14:31:54;18.88;44.71
69335;SHT31;56477;52.742;15.242;2023-05-07T14:34:20;19.19;44.99
69335;SHT31;56477;52.742;15.242;2023-05-07T14:36:46;18.05;47.04
69335;SHT31;56477;52.742;15.242;2023-05-07T14:39:12;17.27;49.20
69335;SHT31;56477;52.742;15.242;2023-05-07T14:41:38;17.39;49.27
69335;SHT31;56477;52.742;15.242;2023-05-07T14:44:04;17.02;48.55
69335;SHT31;56477;52.742;15.242;2023-05-07T14:46:30;17.26;48.79
69335;SHT31;56477;52.742;15.242;2023-05-07T14:48:57;17.27;48.37
69335;SHT31;56477;52.742;15.242;2023-05-07T14:51:23;17.00;49.13
69335;SHT31;56477;52.742;15.242;2023-05-07T14:53:50;16.37;50.74
69335;SHT31;56477;52.742;15.242;2023-05-07T14:56:16;16.27;51.29
69335;SHT31;56477;52.742;15.242;2023-05-07T14:58:43;16.72;50.97
69335;SHT31;56477;52.742;15.242;2023-05-07T15:01:09;16.44;50.58
69335;SHT31;56477;52.742;15.242;2023-05-07T15:03:35;16.47;51.26
69335;SHT31;56477;52.742;15.242;2023-05-07T15:06:02;16.13;51.47
69335;SHT31;56477;52.742;15.242;2023-05-07T15:08:28;16.25;51.98
69335;SHT31;56477;52.742;15.242;2023-05-07T15:10:54;15.90;52.87
69335;SHT31;56477;52.742;15.242;2023-05-07T15:13:20;16.31;52.63
69335;SHT31;56477;52.742;15.242;2023-05-07T15:15:47;16.44;52.92
69335;SHT31;56477;52.742;15.242;2023-05-07T15:18:15;16.13;51.65
69335;SHT31;56477;52.742;15.242;2023-05-07T15:20:41;15.59;53.50
69335;SHT31;56477;52.742;15.242;2023-05-07T15:23:08;15.11;54.98
69335;SHT31;56477;52.742;15.242;2023-05-07T15:25:40;15.25;54.78
69335;SHT31;56477;52.742;15.242;2023-05-07T15:28:06;15.83;53.50
69335;SHT31;56477;52.742;15.242;2023-05-07T15:30:33;16.16;52.66
69335;SHT31;56477;52.742;15.242;2023-05-07T15:33:00;16.12;52.60
69335;SHT31;56477;52.742;15.242;2023-05-07T15:35:26;16.06;51.04
69335;SHT31;56477;52.742;15.242;2023-05-07T15:37:53;15.58;51.57